createdAt,value
2023-02-26T00:00:21.239Z,0.39
2023-02-26T00:02:48.673Z,0.40
2023-02-26T00:04:53.025Z,0.39
2023-02-26T00:06:58.349Z,0.37
2023-02-26T00:09:04.331Z,0.36
2023-02-26T00:11:08.810Z,0.31
2023-02-26T00:13:12.894Z,0.26
2023-02-26T00:15:17.884Z,0.21
2023-02-26T00:17:29.199Z,0.18
2023-02-26T00:19:32.372Z,0.17
2023-02-26T00:21:36.019Z,0.15
2023-02-26T00:23:39.050Z,0.12
2023-02-26T00:25:42.371Z,0.10
2023-02-26T00:27:45.608Z,0.08
2023-02-26T00:29:49.026Z,0.07
2023-02-26T00:31:52.356Z,0.05
2023-02-26T00:33:56.874Z,0.04
2023-02-26T00:36:19.694Z,0.04
2023-02-26T00:38:25.584Z,0.08
2023-02-26T00:40:30.814Z,0.07
2023-02-26T00:42:35.266Z,0.09
2023-02-26T00:44:38.762Z,0.12
2023-02-26T00:46:48.880Z,0.12
2023-02-26T00:49:23.195Z,0.16
2023-02-26T00:51:42.021Z,0.17
2023-02-26T00:53:55.731Z,0.20
2023-02-26T00:55:59.207Z,0.21
2023-02-26T00:58:02.162Z,0.23
2023-02-26T01:00:08.061Z,0.24
2023-02-26T01:02:15.024Z,0.26
2023-02-26T01:04:21.509Z,0.25
2023-02-26T01:06:29.260Z,0.22
2023-02-26T01:08:38.168Z,0.21
2023-02-26T01:10:41.689Z,0.21
2023-02-26T01:12:45.221Z,0.22
2023-02-26T01:14:49.593Z,0.22
2023-02-26T01:17:16.878Z,0.22
2023-02-26T01:19:38.534Z,0.22
2023-02-26T01:21:48.452Z,0.19
2023-02-26T01:23:52.371Z,0.21
2023-02-26T01:26:02.459Z,0.20
2023-02-26T01:28:05.733Z,0.20
2023-02-26T01:30:09.703Z,0.21
2023-02-26T01:32:24.088Z,0.21
2023-02-26T01:34:34.445Z,0.21
2023-02-26T01:36:44.281Z,0.24
2023-02-26T01:39:30.416Z,0.27
2023-02-26T01:41:39.131Z,0.23
2023-02-26T01:44:26.265Z,0.23
2023-02-26T01:47:03.223Z,0.24
2023-02-26T01:49:13.821Z,0.21
2023-02-26T01:51:16.864Z,0.18
2023-02-26T01:53:24.730Z,0.16
2023-02-26T01:55:29.409Z,0.16
2023-02-26T01:57:32.211Z,0.17
2023-02-26T01:59:38.956Z,0.18
2023-02-26T02:01:41.902Z,0.17
2023-02-26T02:03:46.176Z,0.17
2023-02-26T02:05:57.315Z,0.18
2023-02-26T02:08:00.890Z,0.23
2023-02-26T02:10:04.770Z,0.30
2023-02-26T02:12:22.968Z,0.38
2023-02-26T02:14:47.523Z,0.49
2023-02-26T02:17:08.329Z,0.58
2023-02-26T02:19:39.349Z,0.67
2023-02-26T02:21:54.367Z,0.73
2023-02-26T02:24:14.743Z,0.77
2023-02-26T02:26:42.093Z,0.80
2023-02-26T02:29:29.311Z,0.83
2023-02-26T02:31:50.025Z,0.85
2023-02-26T02:34:02.834Z,0.86
2023-02-26T02:36:14.972Z,0.86
2023-02-26T02:38:26.726Z,0.85
2023-02-26T02:40:35.574Z,0.85
2023-02-26T02:42:47.387Z,0.86
2023-02-26T02:44:56.628Z,0.86
2023-02-26T02:47:00.822Z,0.88
2023-02-26T02:49:07.620Z,0.90
2023-02-26T02:51:15.599Z,0.91
2023-02-26T02:54:02.739Z,0.93
2023-02-26T02:56:28.660Z,0.93
2023-02-26T02:58:40.275Z,0.95
2023-02-26T03:00:50.849Z,0.96
2023-02-26T03:03:04.221Z,0.95
2023-02-26T03:05:09.447Z,0.96
2023-02-26T03:07:12.650Z,0.93
2023-02-26T03:09:15.848Z,0.90
2023-02-26T03:11:19.533Z,0.87
2023-02-26T03:13:24.810Z,0.85
2023-02-26T03:15:39.663Z,0.84
2023-02-26T03:17:59.263Z,0.85
2023-02-26T03:20:13.969Z,0.90
2023-02-26T03:22:20.938Z,0.94
2023-02-26T03:24:45.934Z,0.96
2023-02-26T03:26:57.729Z,0.95
2023-02-26T03:29:13.530Z,0.89
2023-02-26T03:31:35.831Z,0.88
2023-02-26T03:33:58.568Z,0.88
2023-02-26T03:36:10.222Z,0.89
2023-02-26T03:38:35.677Z,0.89
2023-02-26T03:40:46.264Z,0.86
2023-02-26T03:42:59.417Z,0.85
2023-02-26T03:45:10.549Z,0.88
2023-02-26T03:47:16.360Z,0.90
2023-02-26T03:49:30.442Z,0.89
2023-02-26T03:51:35.910Z,0.83
2023-02-26T03:54:10.948Z,0.77
2023-02-26T03:56:42.422Z,0.72
2023-02-26T03:58:45.810Z,0.71
2023-02-26T04:01:31.823Z,0.67
2023-02-26T04:03:56.692Z,0.65
2023-02-26T04:06:01.596Z,0.66
2023-02-26T04:08:09.364Z,0.65
2023-02-26T04:10:18.714Z,0.61
2023-02-26T04:12:24.728Z,0.56
2023-02-26T04:14:28.765Z,0.52
2023-02-26T04:16:31.501Z,0.46
2023-02-26T04:18:34.378Z,0.42
2023-02-26T04:20:37.773Z,0.45
2023-02-26T04:22:41.175Z,0.48
2023-02-26T04:24:45.359Z,0.51
2023-02-26T04:26:49.454Z,0.53
2023-02-26T04:28:52.990Z,0.54
2023-02-26T04:30:56.390Z,0.58
2023-02-26T04:32:59.207Z,0.59
2023-02-26T04:35:01.989Z,0.58
2023-02-26T04:37:06.685Z,0.57
2023-02-26T04:39:10.854Z,0.58
2023-02-26T04:41:13.852Z,0.60
2023-02-26T04:43:17.641Z,0.61
2023-02-26T04:45:29.721Z,0.60
2023-02-26T04:47:33.478Z,0.59
2023-02-26T04:49:36.744Z,0.59
2023-02-26T04:51:40.354Z,0.60
2023-02-26T04:53:44.420Z,0.61
2023-02-26T04:55:52.457Z,0.60
2023-02-26T04:57:55.469Z,0.56
2023-02-26T04:59:59.899Z,0.53
2023-02-26T05:02:05.816Z,0.49
2023-02-26T05:04:09.129Z,0.49
2023-02-26T05:06:12.353Z,0.50
2023-02-26T05:08:15.380Z,0.52
2023-02-26T05:10:18.236Z,0.55
2023-02-26T05:12:21.604Z,0.57
2023-02-26T05:14:24.634Z,0.56
2023-02-26T05:16:27.699Z,0.55
2023-02-26T05:18:30.763Z,0.53
2023-02-26T05:20:34.855Z,0.51
2023-02-26T05:22:39.875Z,0.51
2023-02-26T05:24:43.818Z,0.51
2023-02-26T05:26:46.900Z,0.50
2023-02-26T05:28:49.825Z,0.48
2023-02-26T05:30:53.597Z,0.50
2023-02-26T05:32:56.493Z,0.49
2023-02-26T05:34:59.232Z,0.46
2023-02-26T05:37:02.621Z,0.46
2023-02-26T05:39:05.422Z,0.49
2023-02-26T05:41:08.445Z,0.50
2023-02-26T05:43:11.235Z,0.52
2023-02-26T05:45:14.284Z,0.54
2023-02-26T05:47:17.326Z,0.55
2023-02-26T05:49:20.428Z,0.53
2023-02-26T05:51:23.251Z,0.53
2023-02-26T05:53:26.189Z,0.51
2023-02-26T05:55:29.075Z,0.49
2023-02-26T05:57:31.748Z,0.48
2023-02-26T05:59:34.720Z,0.47
2023-02-26T06:01:37.833Z,0.44
2023-02-26T06:03:44.579Z,0.43
2023-02-26T06:05:47.259Z,0.41
2023-02-26T06:07:50.095Z,0.39
2023-02-26T06:09:53.070Z,0.37
2023-02-26T06:11:55.899Z,0.35
2023-02-26T06:13:58.967Z,0.32
2023-02-26T06:16:01.764Z,0.27
2023-02-26T06:18:04.863Z,0.23
2023-02-26T06:20:08.841Z,0.21
2023-02-26T06:22:12.631Z,0.19
2023-02-26T06:24:15.522Z,0.18
2023-02-26T06:26:19.415Z,0.18
2023-02-26T06:28:25.341Z,0.18
2023-02-26T06:30:29.720Z,0.17
2023-02-26T06:32:32.542Z,0.18
2023-02-26T06:34:35.313Z,0.20
2023-02-26T06:36:38.542Z,0.21
2023-02-26T06:38:42.126Z,0.25
2023-02-26T06:40:47.140Z,0.28
2023-02-26T06:42:50.696Z,0.33
2023-02-26T06:44:53.686Z,0.36
2023-02-26T06:46:57.045Z,0.40
2023-02-26T06:49:00.474Z,0.40
2023-02-26T06:51:03.590Z,0.42
2023-02-26T06:53:06.596Z,0.43
2023-02-26T06:55:12.427Z,0.42
2023-02-26T06:57:15.167Z,0.41
2023-02-26T06:59:17.958Z,0.39
2023-02-26T07:01:20.851Z,0.39
2023-02-26T07:03:23.716Z,0.37
2023-02-26T07:05:27.728Z,0.36
2023-02-26T07:07:31.002Z,0.35
2023-02-26T07:09:33.914Z,0.35
2023-02-26T07:11:36.657Z,0.36
2023-02-26T07:13:41.157Z,0.35
2023-02-26T07:15:46.205Z,0.33
2023-02-26T07:17:49.300Z,0.33
2023-02-26T07:19:52.933Z,0.32
2023-02-26T07:21:55.776Z,0.31
2023-02-26T07:23:58.802Z,0.33
2023-02-26T07:26:02.871Z,0.34
2023-02-26T07:28:07.427Z,0.35
2023-02-26T07:30:13.545Z,0.36
2023-02-26T07:32:20.837Z,0.39
2023-02-26T07:34:23.698Z,0.43
2023-02-26T07:36:28.555Z,0.45
2023-02-26T07:38:33.944Z,0.47
2023-02-26T07:40:37.046Z,0.50
2023-02-26T07:42:40.709Z,0.49
2023-02-26T07:44:45.410Z,0.53
2023-02-26T07:46:48.645Z,0.55
2023-02-26T07:48:51.752Z,0.58
2023-02-26T07:50:56.785Z,0.58
2023-02-26T07:52:59.871Z,0.56
2023-02-26T07:55:02.653Z,0.56
2023-02-26T07:57:05.857Z,0.57
2023-02-26T07:59:09.908Z,0.58
2023-02-26T08:01:13.725Z,0.59
2023-02-26T08:03:16.638Z,0.59
2023-02-26T08:05:19.733Z,0.65
2023-02-26T08:07:23.761Z,0.66
2023-02-26T08:09:28.455Z,0.70
2023-02-26T08:11:35.699Z,0.75
2023-02-26T08:13:38.553Z,0.77
2023-02-26T08:15:44.319Z,0.77
2023-02-26T08:17:52.539Z,0.76
2023-02-26T08:19:55.319Z,0.77
2023-02-26T08:21:58.092Z,0.77
2023-02-26T08:24:01.628Z,0.75
2023-02-26T08:26:07.002Z,0.71
2023-02-26T08:28:09.877Z,0.71
2023-02-26T08:30:13.823Z,0.75
2023-02-26T08:32:20.242Z,0.76
2023-02-26T08:34:26.102Z,0.78
2023-02-26T08:36:29.229Z,0.84
2023-02-26T08:38:33.121Z,0.88
2023-02-26T08:40:37.089Z,0.88
2023-02-26T08:42:43.559Z,0.93
2023-02-26T08:44:47.665Z,0.95
2023-02-26T08:46:50.830Z,0.95
2023-02-26T08:48:53.778Z,0.96
2023-02-26T08:50:56.732Z,1.01
2023-02-26T08:52:59.631Z,1.01
2023-02-26T08:55:05.334Z,1.01
2023-02-26T08:57:08.171Z,1.00
2023-02-26T08:59:13.035Z,0.97
2023-02-26T09:01:16.030Z,0.98
2023-02-26T09:03:19.197Z,0.95
2023-02-26T09:05:22.324Z,0.92
2023-02-26T09:07:25.228Z,0.89
2023-02-26T09:09:27.869Z,0.90
2023-02-26T09:11:32.464Z,0.90
2023-02-26T09:13:35.110Z,0.92
2023-02-26T09:15:37.824Z,0.94
2023-02-26T09:17:42.133Z,0.98
2023-02-26T09:19:44.940Z,0.96
2023-02-26T09:21:47.604Z,0.97
2023-02-26T09:23:50.404Z,0.98
2023-02-26T09:25:54.893Z,0.94
2023-02-26T09:27:58.748Z,0.90
2023-02-26T09:30:03.343Z,0.89
2023-02-26T09:32:08.560Z,0.87
2023-02-26T09:34:12.537Z,0.86
2023-02-26T09:36:15.551Z,0.90
2023-02-26T09:38:20.778Z,0.98
2023-02-26T09:40:48.549Z,1.06
2023-02-26T09:43:28.299Z,1.16
2023-02-26T09:45:38.146Z,1.21
2023-02-26T09:47:51.035Z,1.24
2023-02-26T09:50:06.171Z,1.26
2023-02-26T09:52:21.191Z,1.27
2023-02-26T09:54:29.208Z,1.27
2023-02-26T09:56:36.943Z,1.26
2023-02-26T09:58:41.478Z,1.25
2023-02-26T10:01:13.618Z,1.24
2023-02-26T10:03:34.421Z,1.24
2023-02-26T10:06:03.884Z,1.23
2023-02-26T10:08:15.202Z,1.22
2023-02-26T10:10:38.224Z,1.20
2023-02-26T10:12:44.103Z,1.19
2023-02-26T10:14:57.634Z,1.18
2023-02-26T10:17:07.461Z,1.18
2023-02-26T10:19:23.671Z,1.18
2023-02-26T10:21:40.334Z,1.19
2023-02-26T10:23:46.256Z,1.23
2023-02-26T10:26:12.750Z,1.27
2023-02-26T10:28:41.685Z,1.32
2023-02-26T10:30:52.631Z,1.32
2023-02-26T10:33:30.597Z,1.31
2023-02-26T10:35:43.171Z,1.28
2023-02-26T10:37:52.275Z,1.27
2023-02-26T10:40:09.781Z,1.26
2023-02-26T10:42:26.574Z,1.29
2023-02-26T10:44:37.483Z,1.31
2023-02-26T10:46:53.009Z,1.32
2023-02-26T10:49:14.573Z,1.36
2023-02-26T10:51:28.974Z,1.44
2023-02-26T10:53:32.788Z,1.55
2023-02-26T10:55:43.568Z,1.58
2023-02-26T10:58:11.317Z,1.59
2023-02-26T11:00:20.939Z,1.60
2023-02-26T11:02:34.597Z,1.63
2023-02-26T11:04:38.470Z,1.61
2023-02-26T11:06:52.999Z,1.63
2023-02-26T11:08:58.444Z,1.70
2023-02-26T11:11:04.414Z,1.77
2023-02-26T11:13:07.888Z,1.84
2023-02-26T11:15:19.415Z,1.89
2023-02-26T11:17:28.023Z,1.95
2023-02-26T11:19:38.220Z,2.00
2023-02-26T11:21:45.318Z,2.03
2023-02-26T11:23:50.633Z,2.03
2023-02-26T11:26:19.306Z,1.94
2023-02-26T11:28:29.977Z,1.87
2023-02-26T11:30:38.723Z,1.87
2023-02-26T11:32:42.425Z,1.89
2023-02-26T11:35:11.389Z,1.87
2023-02-26T11:37:31.695Z,1.86
2023-02-26T11:39:38.551Z,1.86
2023-02-26T11:41:41.936Z,1.86
2023-02-26T11:43:49.541Z,1.85
2023-02-26T11:46:00.086Z,1.88
2023-02-26T11:48:08.031Z,1.90
2023-02-26T11:50:19.065Z,1.93
2023-02-26T11:52:44.829Z,1.97
2023-02-26T11:54:51.174Z,2.02
2023-02-26T11:57:01.855Z,2.02
2023-02-26T11:59:19.244Z,1.97
2023-02-26T12:01:28.580Z,1.94
2023-02-26T12:03:37.129Z,1.97
2023-02-26T12:05:40.028Z,1.93
2023-02-26T12:07:47.037Z,1.90
2023-02-26T12:09:51.206Z,1.91
2023-02-26T12:12:16.358Z,1.90
2023-02-26T12:14:56.712Z,1.89
2023-02-26T12:17:27.971Z,1.93
2023-02-26T12:19:57.790Z,1.93
2023-02-26T12:22:43.259Z,1.92
2023-02-26T12:25:04.827Z,1.91
2023-02-26T12:27:35.388Z,1.92
2023-02-26T12:29:47.643Z,1.94
2023-02-26T12:31:56.891Z,1.96
2023-02-26T12:34:29.676Z,2.00
2023-02-26T12:36:54.965Z,2.02
2023-02-26T12:39:04.413Z,2.04
2023-02-26T12:41:34.228Z,2.07
2023-02-26T12:43:52.994Z,2.11
2023-02-26T12:46:06.276Z,2.13
2023-02-26T12:48:22.491Z,2.12
2023-02-26T12:50:42.219Z,2.14
2023-02-26T12:52:48.236Z,2.15
2023-02-26T12:54:59.684Z,2.14
2023-02-26T12:57:16.744Z,2.18
2023-02-26T12:59:41.755Z,2.22
2023-02-26T13:02:20.994Z,2.23
2023-02-26T13:04:55.393Z,2.23
2023-02-26T13:07:36.869Z,2.24
2023-02-26T13:10:06.474Z,2.26
2023-02-26T13:12:15.621Z,2.24
2023-02-26T13:14:42.458Z,2.20
2023-02-26T13:17:05.929Z,2.17
2023-02-26T13:19:26.156Z,2.17
2023-02-26T13:21:35.001Z,2.16
2023-02-26T13:24:11.258Z,2.22
2023-02-26T13:26:16.512Z,2.33
2023-02-26T13:28:26.661Z,2.37
2023-02-26T13:30:34.873Z,2.37
2023-02-26T13:32:42.726Z,2.29
2023-02-26T13:34:56.199Z,2.23
2023-02-26T13:37:00.968Z,2.25
2023-02-26T13:39:16.570Z,2.29
2023-02-26T13:41:34.917Z,2.35
2023-02-26T13:44:15.519Z,2.42
2023-02-26T13:46:40.468Z,2.49
2023-02-26T13:49:23.610Z,2.53
2023-02-26T13:51:48.933Z,2.51
2023-02-26T13:53:55.422Z,2.45
2023-02-26T13:56:15.322Z,2.36
2023-02-26T13:58:23.435Z,2.31
2023-02-26T14:00:36.149Z,2.26
2023-02-26T14:02:52.963Z,2.22
2023-02-26T14:05:00.946Z,2.23
2023-02-26T14:07:17.032Z,2.24
2023-02-26T14:09:23.512Z,2.23
2023-02-26T14:11:32.300Z,2.21
2023-02-26T14:13:42.374Z,2.21
2023-02-26T14:16:09.680Z,2.25
2023-02-26T14:18:26.068Z,2.30
2023-02-26T14:20:31.172Z,2.35
2023-02-26T14:22:43.209Z,2.41
2023-02-26T14:24:58.727Z,2.47
2023-02-26T14:27:34.085Z,2.48
2023-02-26T14:29:44.206Z,2.48
2023-02-26T14:31:54.229Z,2.48
2023-02-26T14:34:21.868Z,2.49
2023-02-26T14:36:42.305Z,2.47
2023-02-26T14:38:46.621Z,2.47
2023-02-26T14:41:05.068Z,2.45
2023-02-26T14:43:19.381Z,2.39
2023-02-26T14:45:30.950Z,2.34
2023-02-26T14:47:34.472Z,2.27
2023-02-26T14:49:41.439Z,2.23
2023-02-26T14:52:02.837Z,2.18
2023-02-26T14:54:33.671Z,2.17
2023-02-26T14:57:02.764Z,2.21
2023-02-26T14:59:24.830Z,2.23
2023-02-26T15:01:54.008Z,2.23
2023-02-26T15:04:45.298Z,2.19
2023-02-26T15:07:03.355Z,2.14
2023-02-26T15:09:22.182Z,2.09
2023-02-26T15:12:06.484Z,2.06
2023-02-26T15:14:24.835Z,2.04
2023-02-26T15:16:52.851Z,2.08
2023-02-26T15:19:08.945Z,2.08
2023-02-26T15:21:23.044Z,2.11
2023-02-26T15:23:33.350Z,2.12
2023-02-26T15:25:40.959Z,2.12
2023-02-26T15:27:44.307Z,2.13
2023-02-26T15:29:52.674Z,2.12
2023-02-26T15:32:05.678Z,2.11
2023-02-26T15:34:14.140Z,2.10
2023-02-26T15:36:23.064Z,2.06
2023-02-26T15:38:27.718Z,2.00
2023-02-26T15:40:35.396Z,2.00
2023-02-26T15:42:41.501Z,2.02
2023-02-26T15:44:56.526Z,2.00
2023-02-26T15:47:03.355Z,2.02
2023-02-26T15:49:12.017Z,2.05
2023-02-26T15:51:20.221Z,2.03
2023-02-26T15:53:53.499Z,2.03
2023-02-26T15:56:01.946Z,1.99
2023-02-26T15:58:08.677Z,1.94
2023-02-26T16:00:18.760Z,1.88
2023-02-26T16:02:33.315Z,1.86
2023-02-26T16:04:37.255Z,1.80
2023-02-26T16:06:48.241Z,1.75
2023-02-26T16:08:51.507Z,1.72
2023-02-26T16:10:59.155Z,1.68
2023-02-26T16:13:02.773Z,1.67
2023-02-26T16:15:13.501Z,1.66
2023-02-26T16:17:40.710Z,1.65
2023-02-26T16:19:47.845Z,1.62
2023-02-26T16:21:55.215Z,1.58
2023-02-26T16:24:00.175Z,1.57
2023-02-26T16:26:06.438Z,1.57
2023-02-26T16:28:23.279Z,1.55
2023-02-26T16:30:33.560Z,1.53
2023-02-26T16:32:36.583Z,1.50
2023-02-26T16:34:52.712Z,1.47
2023-02-26T16:36:56.509Z,1.45
2023-02-26T16:39:09.452Z,1.44
2023-02-26T16:41:14.266Z,1.43
2023-02-26T16:43:23.964Z,1.43
2023-02-26T16:45:36.553Z,1.42
2023-02-26T16:47:40.406Z,1.41
2023-02-26T16:49:44.317Z,1.40
2023-02-26T16:51:49.055Z,1.38
2023-02-26T16:54:01.752Z,1.36
2023-02-26T16:56:06.283Z,1.32
2023-02-26T16:58:14.479Z,1.28
2023-02-26T17:00:31.579Z,1.24
2023-02-26T17:02:38.808Z,1.21
2023-02-26T17:04:42.795Z,1.18
2023-02-26T17:06:47.857Z,1.17
2023-02-26T17:09:00.180Z,1.20
2023-02-26T17:11:07.621Z,1.19
2023-02-26T17:13:18.018Z,1.17
2023-02-26T17:15:31.338Z,1.14
2023-02-26T17:17:34.828Z,1.11
2023-02-26T17:19:38.784Z,1.10
2023-02-26T17:21:49.164Z,1.08
2023-02-26T17:23:52.025Z,1.06
2023-02-26T17:25:56.593Z,1.07
2023-02-26T17:28:00.373Z,1.06
2023-02-26T17:30:05.836Z,1.05
2023-02-26T17:32:23.965Z,1.06
2023-02-26T17:34:27.762Z,1.07
2023-02-26T17:36:32.467Z,1.07
2023-02-26T17:38:36.914Z,1.08
2023-02-26T17:40:43.848Z,1.07
2023-02-26T17:42:48.014Z,1.04
2023-02-26T17:44:51.908Z,1.02
2023-02-26T17:46:57.812Z,1.02
2023-02-26T17:49:01.398Z,1.03
2023-02-26T17:51:05.674Z,1.05
2023-02-26T17:53:09.847Z,1.04
2023-02-26T17:55:13.233Z,1.02
2023-02-26T17:57:20.678Z,1.00
2023-02-26T17:59:24.009Z,0.98
2023-02-26T18:01:30.007Z,0.95
2023-02-26T18:03:34.180Z,0.91
2023-02-26T18:05:39.330Z,0.91
2023-02-26T18:07:42.996Z,0.89
2023-02-26T18:09:47.998Z,0.85
2023-02-26T18:11:52.650Z,0.82
2023-02-26T18:13:56.862Z,0.82
2023-02-26T18:16:02.983Z,0.81
2023-02-26T18:18:14.553Z,0.79
2023-02-26T18:20:22.634Z,0.79
2023-02-26T18:22:27.592Z,0.79
2023-02-26T18:24:32.397Z,0.78
2023-02-26T18:26:35.962Z,0.77
2023-02-26T18:28:39.497Z,0.75
2023-02-26T18:30:44.772Z,0.73
2023-02-26T18:32:48.529Z,0.73
2023-02-26T18:34:51.694Z,0.71
2023-02-26T18:36:54.781Z,0.69
2023-02-26T18:39:03.296Z,0.68
2023-02-26T18:41:06.769Z,0.65
2023-02-26T18:43:12.654Z,0.63
2023-02-26T18:45:17.901Z,0.64
2023-02-26T18:47:22.989Z,0.65
2023-02-26T18:49:27.705Z,0.65
2023-02-26T18:51:33.396Z,0.66
2023-02-26T18:53:37.390Z,0.65
2023-02-26T18:55:41.629Z,0.65
2023-02-26T18:57:46.117Z,0.64
2023-02-26T18:59:49.576Z,0.64
2023-02-26T19:01:53.137Z,0.66
2023-02-26T19:04:11.088Z,0.67
2023-02-26T19:06:20.295Z,0.68
2023-02-26T19:08:27.638Z,0.68
2023-02-26T19:10:31.918Z,0.66
2023-02-26T19:12:37.189Z,0.64
2023-02-26T19:14:44.871Z,0.66
2023-02-26T19:16:52.353Z,0.66
2023-02-26T19:18:55.642Z,0.67
2023-02-26T19:20:58.429Z,0.68
2023-02-26T19:23:02.871Z,0.69
2023-02-26T19:25:08.585Z,0.68
2023-02-26T19:27:13.678Z,0.68
2023-02-26T19:29:19.491Z,0.68
2023-02-26T19:31:22.955Z,0.68
2023-02-26T19:33:26.833Z,0.70
2023-02-26T19:35:31.110Z,0.69
2023-02-26T19:37:34.765Z,0.70
2023-02-26T19:39:39.913Z,0.70
2023-02-26T19:41:46.173Z,0.67
2023-02-26T19:43:51.102Z,0.67
2023-02-26T19:45:56.137Z,0.66
2023-02-26T19:47:59.893Z,0.63
2023-02-26T19:50:04.279Z,0.59
2023-02-26T19:52:08.591Z,0.57
2023-02-26T19:54:14.381Z,0.56
2023-02-26T19:56:17.923Z,0.53
2023-02-26T19:58:25.747Z,0.51
2023-02-26T20:00:30.423Z,0.49
2023-02-26T20:02:34.485Z,0.48
2023-02-26T20:04:44.836Z,0.47
2023-02-26T20:06:53.486Z,0.48
2023-02-26T20:08:57.637Z,0.47
2023-02-26T20:11:02.232Z,0.43
2023-02-26T20:13:05.530Z,0.42
2023-02-26T20:15:12.534Z,0.41
2023-02-26T20:17:15.369Z,0.40
2023-02-26T20:19:20.851Z,0.40
2023-02-26T20:21:24.744Z,0.38
2023-02-26T20:23:29.200Z,0.40
2023-02-26T20:25:33.005Z,0.43
2023-02-26T20:27:37.529Z,0.46
2023-02-26T20:29:46.719Z,0.51
2023-02-26T20:31:50.839Z,0.55
2023-02-26T20:33:55.638Z,0.55
2023-02-26T20:36:02.544Z,0.54
2023-02-26T20:38:06.267Z,0.52
2023-02-26T20:40:10.872Z,0.47
2023-02-26T20:42:14.417Z,0.46
2023-02-26T20:44:18.554Z,0.45
2023-02-26T20:46:22.997Z,0.41
2023-02-26T20:48:27.645Z,0.40
2023-02-26T20:50:32.537Z,0.42
2023-02-26T20:52:37.248Z,0.41
2023-02-26T20:54:45.827Z,0.40
2023-02-26T20:56:51.388Z,0.37
2023-02-26T20:58:55.196Z,0.34
2023-02-26T21:00:59.856Z,0.31
2023-02-26T21:03:03.324Z,0.26
2023-02-26T21:05:07.739Z,0.26
2023-02-26T21:07:21.704Z,0.27
2023-02-26T21:09:27.223Z,0.31
2023-02-26T21:11:35.244Z,0.35
2023-02-26T21:13:41.163Z,0.39
2023-02-26T21:15:45.117Z,0.43
2023-02-26T21:17:58.277Z,0.43
2023-02-26T21:20:01.575Z,0.42
2023-02-26T21:22:05.057Z,0.37
2023-02-26T21:24:08.888Z,0.33
2023-02-26T21:26:13.387Z,0.25
2023-02-26T21:28:16.648Z,0.17
2023-02-26T21:30:20.061Z,0.13
2023-02-26T21:32:24.815Z,0.09
2023-02-26T21:34:33.789Z,0.04
2023-02-26T21:36:37.619Z,-0.03
2023-02-26T21:38:42.185Z,-0.08
2023-02-26T21:40:47.013Z,-0.07
2023-02-26T21:42:50.462Z,-0.04
2023-02-26T21:44:54.413Z,0.02
2023-02-26T21:46:57.483Z,0.06
2023-02-26T21:49:01.237Z,0.09
2023-02-26T21:51:04.779Z,0.08
2023-02-26T21:53:07.983Z,0.03
2023-02-26T21:55:11.650Z,-0.06
2023-02-26T21:57:14.328Z,-0.14
2023-02-26T21:59:18.208Z,-0.20
2023-02-26T22:01:21.636Z,-0.26
2023-02-26T22:03:25.768Z,-0.30
2023-02-26T22:05:29.029Z,-0.34
2023-02-26T22:07:32.950Z,-0.36
2023-02-26T22:09:36.113Z,-0.39
2023-02-26T22:11:39.936Z,-0.39
2023-02-26T22:13:45.225Z,-0.40
2023-02-26T22:15:48.191Z,-0.37
2023-02-26T22:17:51.731Z,-0.40
2023-02-26T22:19:55.495Z,-0.45
2023-02-26T22:21:58.872Z,-0.49
2023-02-26T22:24:03.769Z,-0.54
2023-02-26T22:26:07.102Z,-0.54
2023-02-26T22:28:10.296Z,-0.55
2023-02-26T22:30:13.837Z,-0.53
2023-02-26T22:32:16.758Z,-0.52
2023-02-26T22:34:20.048Z,-0.53
2023-02-26T22:36:24.721Z,-0.54
2023-02-26T22:38:27.689Z,-0.57
2023-02-26T22:40:30.756Z,-0.56
2023-02-26T22:42:36.040Z,-0.56
2023-02-26T22:44:39.781Z,-0.57
2023-02-26T22:46:45.237Z,-0.61
2023-02-26T22:48:49.808Z,-0.67
2023-02-26T22:50:52.615Z,-0.69
2023-02-26T22:52:56.859Z,-0.73
2023-02-26T22:55:00.686Z,-0.77
2023-02-26T22:57:04.891Z,-0.80
2023-02-26T22:59:09.219Z,-0.84
2023-02-26T23:01:13.713Z,-0.87
2023-02-26T23:03:16.599Z,-0.89
2023-02-26T23:05:22.236Z,-0.89
2023-02-26T23:07:25.064Z,-0.91
2023-02-26T23:09:28.736Z,-0.95
2023-02-26T23:11:32.277Z,-0.97
2023-02-26T23:13:35.595Z,-1.00
2023-02-26T23:15:38.615Z,-1.01
2023-02-26T23:17:42.106Z,-1.02
2023-02-26T23:19:44.949Z,-1.03
2023-02-26T23:21:48.209Z,-1.04
2023-02-26T23:23:51.391Z,-1.03
2023-02-26T23:25:54.068Z,-1.02
2023-02-26T23:27:57.049Z,-0.99
2023-02-26T23:29:59.799Z,-0.94
2023-02-26T23:32:03.421Z,-0.89
2023-02-26T23:34:07.376Z,-0.87
2023-02-26T23:36:10.351Z,-0.86
2023-02-26T23:38:13.246Z,-0.88
2023-02-26T23:40:16.247Z,-0.90
2023-02-26T23:42:19.130Z,-0.91
2023-02-26T23:44:23.375Z,-0.90
2023-02-26T23:46:26.517Z,-0.90
2023-02-26T23:48:29.572Z,-0.88
2023-02-26T23:50:32.845Z,-0.87
2023-02-26T23:52:36.777Z,-0.86
2023-02-26T23:54:40.161Z,-0.87
2023-02-26T23:56:43.810Z,-0.89
2023-02-26T23:58:47.897Z,-0.91
